createdAt,value
2022-12-04T00:02:10.621Z,30.38
2022-12-04T00:04:37.324Z,32.00
2022-12-04T00:07:04.117Z,33.35
2022-12-04T00:09:30.651Z,29.20
2022-12-04T00:11:57.326Z,29.92
2022-12-04T00:14:24.084Z,32.28
2022-12-04T00:16:50.700Z,31.10
2022-12-04T00:19:17.695Z,28.77
2022-12-04T00:21:45.467Z,28.95
2022-12-04T00:24:12.498Z,27.83
2022-12-04T00:26:39.030Z,32.38
2022-12-04T00:29:05.636Z,31.10
2022-12-04T00:31:32.740Z,31.48
2022-12-04T00:34:00.588Z,33.38
2022-12-04T00:36:29.028Z,33.85
2022-12-04T00:38:55.828Z,37.28
2022-12-04T00:41:24.967Z,29.38
2022-12-04T00:43:52.280Z,30.88
2022-12-04T00:46:19.448Z,32.45
2022-12-04T00:48:46.588Z,33.20
2022-12-04T00:51:21.897Z,28.75
2022-12-04T00:53:49.124Z,31.60
2022-12-04T00:56:18.837Z,28.13
2022-12-04T00:58:46.101Z,31.58
2022-12-04T01:01:18.939Z,31.88
2022-12-04T01:03:46.177Z,32.00
2022-12-04T01:06:23.552Z,32.80
2022-12-04T01:08:52.278Z,29.95
2022-12-04T01:11:19.628Z,29.02
2022-12-04T01:13:46.213Z,32.17
2022-12-04T01:16:20.647Z,32.28
2022-12-04T01:18:47.478Z,32.63
2022-12-04T01:21:14.021Z,28.63
2022-12-04T01:23:40.777Z,31.83
2022-12-04T01:26:07.631Z,34.22
2022-12-04T01:28:34.438Z,34.92
2022-12-04T01:31:02.365Z,31.80
2022-12-04T01:33:30.533Z,34.55
2022-12-04T01:35:59.307Z,31.67
2022-12-04T01:38:26.401Z,30.45
2022-12-04T01:40:53.932Z,30.85
2022-12-04T01:43:21.201Z,33.60
2022-12-04T01:45:58.796Z,31.65
2022-12-04T01:48:32.713Z,40.15
2022-12-04T01:51:09.110Z,34.40
2022-12-04T01:53:39.975Z,36.10
2022-12-04T01:56:07.194Z,31.98
2022-12-04T01:58:39.989Z,34.15
2022-12-04T02:01:09.094Z,37.70
2022-12-04T02:03:37.801Z,35.83
2022-12-04T02:06:05.352Z,35.47
2022-12-04T02:08:32.732Z,32.70
2022-12-04T02:11:31.044Z,41.35
2022-12-04T02:14:00.447Z,32.55
2022-12-04T02:16:29.969Z,36.90
2022-12-04T02:19:14.197Z,36.60
2022-12-04T02:21:44.961Z,37.90
2022-12-04T02:24:49.768Z,40.17
2022-12-04T02:27:19.721Z,34.65
2022-12-04T02:29:53.695Z,38.15
2022-12-04T02:32:44.623Z,37.47
2022-12-04T02:35:23.297Z,39.33
2022-12-04T02:37:55.938Z,37.60
2022-12-04T02:40:30.167Z,39.10
2022-12-04T02:43:31.050Z,38.80
2022-12-04T02:45:57.580Z,44.10
2022-12-04T02:48:26.510Z,40.72
2022-12-04T02:50:56.068Z,36.40
2022-12-04T02:53:47.765Z,41.10
2022-12-04T02:56:20.068Z,38.90
2022-12-04T02:58:58.305Z,41.13
2022-12-04T03:01:33.055Z,36.83
2022-12-04T03:04:13.326Z,40.03
2022-12-04T03:06:44.320Z,40.28
2022-12-04T03:09:17.269Z,35.35
2022-12-04T03:11:49.961Z,38.00
2022-12-04T03:14:31.652Z,31.75
2022-12-04T03:17:07.453Z,33.17
2022-12-04T03:19:41.959Z,35.60
2022-12-04T03:22:13.689Z,34.95
2022-12-04T03:24:50.981Z,41.17
2022-12-04T03:27:27.363Z,36.75
2022-12-04T03:29:57.629Z,37.72
2022-12-04T03:32:40.021Z,38.42
2022-12-04T03:35:27.159Z,32.53
2022-12-04T03:38:21.285Z,41.17
2022-12-04T03:41:03.585Z,42.00
2022-12-04T03:43:37.509Z,39.45
2022-12-04T03:46:08.836Z,41.80
2022-12-04T03:48:45.420Z,44.78
2022-12-04T03:51:23.683Z,36.35
2022-12-04T03:53:55.316Z,37.72
2022-12-04T03:56:26.792Z,36.88
2022-12-04T03:58:58.058Z,39.42
2022-12-04T04:01:30.369Z,38.80
2022-12-04T04:03:59.098Z,36.47
2022-12-04T04:06:31.940Z,36.58
2022-12-04T04:09:05.385Z,37.03
2022-12-04T04:11:37.842Z,35.97
2022-12-04T04:14:45.940Z,34.03
2022-12-04T04:17:38.232Z,34.83
2022-12-04T04:20:33.913Z,30.15
2022-12-04T04:23:21.890Z,28.60
2022-12-04T04:25:48.907Z,28.85
2022-12-04T04:28:35.057Z,28.48
2022-12-04T04:31:28.921Z,30.20
2022-12-04T04:34:07.685Z,30.98
2022-12-04T04:36:50.639Z,31.27
2022-12-04T04:39:45.725Z,27.75
2022-12-04T04:42:14.883Z,30.25
2022-12-04T04:44:49.429Z,28.70
2022-12-04T04:47:38.158Z,27.65
2022-12-04T04:50:08.593Z,27.65
2022-12-04T04:52:37.733Z,27.27
2022-12-04T04:55:05.389Z,28.67
2022-12-04T04:57:35.959Z,32.15
2022-12-04T05:00:06.149Z,28.27
2022-12-04T05:02:33.863Z,33.00
2022-12-04T05:05:00.503Z,29.50
2022-12-04T05:07:27.179Z,28.40
2022-12-04T05:09:54.218Z,28.35
2022-12-04T05:12:21.141Z,28.08
2022-12-04T05:14:48.344Z,25.70
2022-12-04T05:17:15.472Z,25.63
2022-12-04T05:19:54.457Z,26.35
2022-12-04T05:22:22.617Z,28.90
2022-12-04T05:24:49.174Z,29.00
2022-12-04T05:27:15.800Z,34.38
2022-12-04T05:29:42.370Z,32.92
2022-12-04T05:32:08.967Z,31.45
2022-12-04T05:34:35.517Z,31.50
2022-12-04T05:37:02.059Z,27.67
2022-12-04T05:39:28.580Z,26.55
2022-12-04T05:41:55.101Z,26.67
2022-12-04T05:44:21.636Z,24.67
2022-12-04T05:46:48.268Z,24.23
2022-12-04T05:49:14.969Z,25.17
2022-12-04T05:51:41.520Z,26.02
2022-12-04T05:54:08.171Z,25.13
2022-12-04T05:56:34.709Z,24.05
2022-12-04T05:59:01.191Z,20.00
2022-12-04T06:01:27.859Z,20.30
2022-12-04T06:03:54.524Z,19.25
2022-12-04T06:06:24.740Z,20.45
2022-12-04T06:08:53.489Z,22.15
2022-12-04T06:11:23.929Z,24.42
2022-12-04T06:13:50.925Z,22.55
2022-12-04T06:16:22.975Z,22.30
2022-12-04T06:18:51.934Z,21.98
2022-12-04T06:21:19.081Z,20.60
2022-12-04T06:23:45.825Z,21.17
2022-12-04T06:26:12.814Z,20.73
2022-12-04T06:28:39.371Z,19.60
2022-12-04T06:31:08.340Z,21.27
2022-12-04T06:33:35.760Z,20.55
2022-12-04T06:36:05.250Z,21.27
2022-12-04T06:38:32.408Z,16.98
2022-12-04T06:40:59.184Z,19.23
2022-12-04T06:43:25.966Z,17.50
2022-12-04T06:46:08.394Z,16.63
2022-12-04T06:48:35.420Z,19.73
2022-12-04T06:51:10.499Z,24.85
2022-12-04T06:53:37.060Z,23.20
2022-12-04T06:56:07.872Z,20.90
2022-12-04T06:58:35.349Z,22.73
2022-12-04T07:01:10.064Z,23.63
2022-12-04T07:03:37.842Z,23.80
2022-12-04T07:06:24.668Z,24.88
2022-12-04T07:08:54.452Z,23.30
2022-12-04T07:11:22.373Z,22.23
2022-12-04T07:13:49.917Z,24.63
2022-12-04T07:16:19.014Z,23.95
2022-12-04T07:18:46.337Z,24.17
2022-12-04T07:21:21.572Z,24.55
2022-12-04T07:23:52.934Z,23.02
2022-12-04T07:26:20.551Z,21.88
2022-12-04T07:28:47.438Z,23.42
2022-12-04T07:31:16.777Z,24.17
2022-12-04T07:33:45.033Z,23.25
2022-12-04T07:36:15.977Z,22.67
2022-12-04T07:38:42.975Z,23.92
2022-12-04T07:41:12.222Z,23.60
2022-12-04T07:43:39.205Z,26.45
2022-12-04T07:46:08.601Z,21.73
2022-12-04T07:48:35.253Z,23.67
2022-12-04T07:51:04.124Z,23.40
2022-12-04T07:53:30.786Z,21.65
2022-12-04T07:55:57.332Z,23.63
2022-12-04T07:58:23.870Z,24.25
2022-12-04T08:00:50.499Z,26.42
2022-12-04T08:03:17.345Z,25.63
2022-12-04T08:05:43.855Z,23.45
2022-12-04T08:08:10.439Z,23.83
2022-12-04T08:10:40.403Z,22.40
2022-12-04T08:13:07.210Z,21.80
2022-12-04T08:15:35.031Z,23.17
2022-12-04T08:18:01.622Z,23.60
2022-12-04T08:20:28.164Z,24.20
2022-12-04T08:22:54.690Z,24.83
2022-12-04T08:25:21.332Z,22.27
2022-12-04T08:27:48.045Z,27.13
2022-12-04T08:30:14.714Z,26.75
2022-12-04T08:32:41.341Z,27.42
2022-12-04T08:35:08.379Z,26.30
2022-12-04T08:37:35.016Z,27.35
2022-12-04T08:40:01.698Z,25.10
2022-12-04T08:42:28.295Z,29.40
2022-12-04T08:44:54.851Z,25.33
2022-12-04T08:47:21.400Z,23.00
2022-12-04T08:49:48.048Z,22.75
2022-12-04T08:52:14.609Z,22.50
2022-12-04T08:54:41.153Z,24.67
2022-12-04T08:57:08.013Z,26.35
2022-12-04T08:59:34.597Z,25.95
2022-12-04T09:02:01.176Z,27.80
2022-12-04T09:04:27.851Z,26.73
2022-12-04T09:06:54.386Z,30.73
2022-12-04T09:09:20.914Z,27.15
2022-12-04T09:11:47.547Z,29.38
2022-12-04T09:14:14.141Z,26.95
2022-12-04T09:16:40.715Z,27.75
2022-12-04T09:19:07.241Z,26.33
2022-12-04T09:21:33.782Z,29.45
2022-12-04T09:24:00.351Z,37.80
2022-12-04T09:26:31.023Z,31.60
2022-12-04T09:29:00.063Z,27.25
2022-12-04T09:31:27.429Z,30.40
2022-12-04T09:33:54.458Z,34.95
2022-12-04T09:36:21.461Z,29.95
2022-12-04T09:38:51.115Z,32.47
2022-12-04T09:41:38.773Z,25.02
2022-12-04T09:44:36.496Z,31.30
2022-12-04T09:47:09.528Z,31.02
2022-12-04T09:50:01.682Z,28.25
2022-12-04T09:52:44.368Z,27.25
2022-12-04T09:55:17.886Z,29.05
2022-12-04T09:57:51.309Z,39.03
2022-12-04T10:00:20.416Z,33.75
2022-12-04T10:03:01.545Z,37.20
2022-12-04T10:05:48.069Z,44.47
2022-12-04T10:08:17.779Z,39.90
2022-12-04T10:11:14.690Z,53.78
2022-12-04T10:14:03.037Z,40.30
2022-12-04T10:16:41.762Z,37.20
2022-12-04T10:19:20.377Z,31.92
2022-12-04T10:22:05.780Z,39.45
2022-12-04T10:24:54.108Z,36.35
2022-12-04T10:27:32.732Z,32.95
2022-12-04T10:30:05.893Z,37.88
2022-12-04T10:32:34.390Z,35.97
2022-12-04T10:35:20.363Z,46.97
2022-12-04T10:37:51.718Z,30.35
2022-12-04T10:40:37.516Z,27.70
2022-12-04T10:43:41.447Z,26.17
2022-12-04T10:46:14.310Z,24.23
2022-12-04T10:48:43.165Z,24.63
2022-12-04T10:51:16.307Z,27.10
2022-12-04T10:53:44.689Z,24.65
2022-12-04T10:56:20.573Z,27.38
2022-12-04T10:59:00.835Z,30.60
2022-12-04T11:01:33.098Z,27.20
2022-12-04T11:04:04.075Z,29.38
2022-12-04T11:06:31.414Z,28.15
2022-12-04T11:08:59.595Z,26.10
2022-12-04T11:11:34.663Z,28.38
2022-12-04T11:14:13.486Z,28.20
2022-12-04T11:16:44.748Z,33.05
2022-12-04T11:19:26.242Z,32.88
2022-12-04T11:22:05.975Z,29.67
2022-12-04T11:24:40.597Z,31.05
2022-12-04T11:27:16.706Z,30.48
2022-12-04T11:29:45.829Z,26.15
2022-12-04T11:32:24.042Z,27.33
2022-12-04T11:34:54.205Z,27.80
2022-12-04T11:37:35.857Z,28.40
2022-12-04T11:40:07.515Z,29.02
2022-12-04T11:42:34.102Z,30.20
2022-12-04T11:45:20.155Z,29.63
2022-12-04T11:47:55.294Z,31.52
2022-12-04T11:50:28.466Z,31.48
2022-12-04T11:53:07.315Z,34.17
2022-12-04T11:55:48.708Z,32.10
2022-12-04T11:58:46.935Z,28.17
2022-12-04T12:01:46.090Z,37.17
2022-12-04T12:04:21.680Z,34.20
2022-12-04T12:07:03.983Z,31.52
2022-12-04T12:09:33.448Z,30.00
2022-12-04T12:12:10.306Z,36.22
2022-12-04T12:14:51.729Z,28.70
2022-12-04T12:17:47.553Z,32.10
2022-12-04T12:20:28.762Z,32.78
2022-12-04T12:23:13.763Z,33.20
2022-12-04T12:25:53.032Z,27.15
2022-12-04T12:28:48.818Z,29.20
2022-12-04T12:31:36.858Z,31.70
2022-12-04T12:34:27.198Z,29.40
2022-12-04T12:36:59.388Z,27.42
2022-12-04T12:39:43.817Z,46.90
2022-12-04T12:42:20.981Z,91.95
2022-12-04T12:44:55.961Z,35.97
2022-12-04T12:47:40.400Z,36.28
2022-12-04T12:50:07.402Z,25.30
2022-12-04T12:52:51.932Z,24.88
2022-12-04T12:55:25.965Z,28.40
2022-12-04T12:58:38.154Z,23.45
2022-12-04T13:01:34.687Z,28.88
2022-12-04T13:04:22.758Z,26.52
2022-12-04T13:07:05.115Z,28.52
2022-12-04T13:09:37.543Z,26.60
2022-12-04T13:12:10.833Z,32.38
2022-12-04T13:14:37.715Z,26.08
2022-12-04T13:17:12.606Z,29.00
2022-12-04T13:19:48.379Z,27.85
2022-12-04T13:22:59.348Z,29.92
2022-12-04T13:25:28.891Z,28.08
2022-12-04T13:28:07.742Z,32.58
2022-12-04T13:30:55.222Z,31.05
2022-12-04T13:33:29.111Z,29.75
2022-12-04T13:36:16.945Z,30.73
2022-12-04T13:39:20.917Z,30.40
2022-12-04T13:41:56.061Z,31.52
2022-12-04T13:44:25.393Z,32.63
2022-12-04T13:46:59.821Z,34.58
2022-12-04T13:49:32.311Z,31.73
2022-12-04T13:52:02.259Z,28.80
2022-12-04T13:54:34.605Z,47.47
2022-12-04T13:57:19.618Z,109.82
2022-12-04T13:59:47.593Z,78.40
2022-12-04T14:02:28.861Z,71.90
2022-12-04T14:05:01.720Z,42.63
2022-12-04T14:07:41.778Z,36.53
2022-12-04T14:10:28.147Z,35.63
2022-12-04T14:13:02.183Z,33.65
2022-12-04T14:15:35.663Z,31.85
2022-12-04T14:18:16.519Z,30.17
2022-12-04T14:20:46.929Z,30.90
2022-12-04T14:23:17.955Z,36.20
2022-12-04T14:25:44.531Z,35.23
2022-12-04T14:28:35.968Z,28.88
2022-12-04T14:31:25.871Z,30.40
2022-12-04T14:34:23.319Z,35.88
2022-12-04T14:36:55.331Z,33.22
2022-12-04T14:39:32.064Z,31.55
2022-12-04T14:42:13.348Z,32.53
2022-12-04T14:44:40.214Z,28.13
2022-12-04T14:47:22.109Z,29.08
2022-12-04T14:50:16.290Z,26.90
2022-12-04T14:52:49.059Z,29.90
2022-12-04T14:55:28.821Z,27.80
2022-12-04T14:58:21.720Z,29.92
2022-12-04T15:00:53.740Z,30.65
2022-12-04T15:03:22.749Z,28.88
2022-12-04T15:05:50.921Z,29.20
2022-12-04T15:08:20.307Z,29.67
2022-12-04T15:11:09.707Z,28.80
2022-12-04T15:13:38.478Z,31.17
2022-12-04T15:16:17.352Z,28.75
2022-12-04T15:18:57.523Z,30.50
2022-12-04T15:21:36.474Z,34.53
2022-12-04T15:24:08.508Z,62.40
2022-12-04T15:26:37.236Z,73.90
2022-12-04T15:29:07.715Z,34.05
2022-12-04T15:31:53.433Z,30.05
2022-12-04T15:34:25.072Z,30.75
2022-12-04T15:37:03.166Z,32.50
2022-12-04T15:39:33.228Z,29.92
2022-12-04T15:42:14.586Z,29.80
2022-12-04T15:44:51.541Z,33.30
2022-12-04T15:47:22.302Z,31.83
2022-12-04T15:49:48.936Z,31.65
2022-12-04T15:52:19.051Z,29.33
2022-12-04T15:55:02.534Z,30.05
2022-12-04T15:57:35.382Z,32.00
2022-12-04T16:00:05.364Z,30.63
2022-12-04T16:02:35.365Z,36.72
2022-12-04T16:05:38.066Z,36.53
2022-12-04T16:08:22.790Z,32.28
2022-12-04T16:11:22.095Z,35.70
2022-12-04T16:14:14.026Z,35.38
2022-12-04T16:16:43.746Z,36.88
2022-12-04T16:19:33.010Z,36.65
2022-12-04T16:22:02.299Z,38.42
2022-12-04T16:24:28.929Z,73.47
2022-12-04T16:26:56.731Z,145.95
2022-12-04T16:29:23.724Z,68.25
2022-12-04T16:31:51.205Z,54.92
2022-12-04T16:34:18.291Z,95.65
2022-12-04T16:36:44.951Z,55.35
2022-12-04T16:39:11.503Z,71.45
2022-12-04T16:41:38.324Z,41.17
2022-12-04T16:44:12.229Z,34.38
2022-12-04T16:46:38.808Z,35.92
2022-12-04T16:49:07.661Z,35.05
2022-12-04T16:51:37.371Z,39.58
2022-12-04T16:54:03.939Z,38.58
2022-12-04T16:56:30.490Z,35.22
2022-12-04T16:58:57.012Z,37.35
2022-12-04T17:01:27.613Z,41.38
2022-12-04T17:03:54.263Z,35.10
2022-12-04T17:06:21.065Z,34.72
2022-12-04T17:08:47.800Z,37.70
2022-12-04T17:11:17.062Z,35.65
2022-12-04T17:13:43.996Z,37.95
2022-12-04T17:16:14.631Z,32.55
2022-12-04T17:18:42.283Z,48.10
2022-12-04T17:21:11.310Z,53.75
2022-12-04T17:23:38.162Z,75.15
2022-12-04T17:26:07.182Z,55.15
2022-12-04T17:28:34.305Z,63.70
2022-12-04T17:31:02.675Z,39.88
2022-12-04T17:33:29.271Z,34.47
2022-12-04T17:35:55.999Z,30.48
2022-12-04T17:38:22.541Z,33.63
2022-12-04T17:41:02.339Z,42.10
2022-12-04T17:43:30.293Z,34.42
2022-12-04T17:45:57.567Z,34.38
2022-12-04T17:48:24.348Z,29.77
2022-12-04T17:50:51.066Z,33.10
2022-12-04T17:53:17.678Z,30.58
2022-12-04T17:55:44.192Z,32.40
2022-12-04T17:58:10.709Z,33.58
2022-12-04T18:00:37.514Z,36.38
2022-12-04T18:03:04.457Z,35.03
2022-12-04T18:05:31.260Z,33.63
2022-12-04T18:07:57.872Z,36.38
2022-12-04T18:10:24.499Z,33.83
2022-12-04T18:12:51.105Z,35.10
2022-12-04T18:15:17.751Z,29.40
2022-12-04T18:17:44.325Z,36.15
2022-12-04T18:20:11.306Z,37.65
2022-12-04T18:22:37.994Z,32.72
2022-12-04T18:25:04.783Z,31.27
2022-12-04T18:27:31.452Z,32.22
2022-12-04T18:29:58.159Z,38.60
2022-12-04T18:32:24.838Z,35.22
2022-12-04T18:34:51.346Z,30.63
2022-12-04T18:37:18.341Z,34.75
2022-12-04T18:39:44.866Z,30.63
2022-12-04T18:42:11.382Z,32.42
2022-12-04T18:44:38.020Z,32.25
2022-12-04T18:47:04.676Z,34.75
2022-12-04T18:49:31.220Z,30.10
2022-12-04T18:51:58.964Z,31.23
2022-12-04T18:54:25.785Z,31.48
2022-12-04T18:56:52.359Z,28.77
2022-12-04T18:59:21.735Z,35.13
2022-12-04T19:01:51.651Z,32.42
2022-12-04T19:04:20.436Z,32.30
2022-12-04T19:06:50.316Z,28.92
2022-12-04T19:09:19.540Z,32.38
2022-12-04T19:11:46.711Z,32.00
2022-12-04T19:14:22.323Z,32.33
2022-12-04T19:16:50.434Z,35.58
2022-12-04T19:19:17.762Z,61.60
2022-12-04T19:21:44.542Z,36.58
2022-12-04T19:24:11.773Z,81.03
2022-12-04T19:26:38.977Z,40.53
2022-12-04T19:29:07.115Z,39.55
2022-12-04T19:31:35.851Z,54.15
2022-12-04T19:34:02.925Z,40.22
2022-12-04T19:36:31.505Z,37.90
2022-12-04T19:38:58.905Z,44.58
2022-12-04T19:41:30.284Z,34.13
2022-12-04T19:43:59.038Z,36.75
2022-12-04T19:46:29.308Z,34.13
2022-12-04T19:48:58.754Z,39.30
2022-12-04T19:51:25.763Z,39.47
2022-12-04T19:53:54.627Z,32.88
2022-12-04T19:56:24.761Z,39.13
2022-12-04T19:58:53.155Z,33.85
2022-12-04T20:01:25.370Z,40.72
2022-12-04T20:03:52.584Z,38.05
2022-12-04T20:06:22.886Z,39.17
2022-12-04T20:08:55.943Z,38.83
2022-12-04T20:11:23.168Z,38.85
2022-12-04T20:13:53.992Z,39.58
2022-12-04T20:16:20.677Z,44.65
2022-12-04T20:18:47.364Z,38.72
2022-12-04T20:21:14.381Z,41.20
2022-12-04T20:23:50.032Z,39.50
2022-12-04T20:26:38.351Z,44.08
2022-12-04T20:29:06.865Z,46.78
2022-12-04T20:31:36.426Z,42.03
2022-12-04T20:34:06.863Z,43.70
2022-12-04T20:36:38.077Z,46.00
2022-12-04T20:39:05.765Z,44.80
2022-12-04T20:41:33.391Z,42.00
2022-12-04T20:44:02.132Z,44.78
2022-12-04T20:46:37.837Z,44.38
2022-12-04T20:49:08.555Z,48.40
2022-12-04T20:51:38.171Z,42.70
2022-12-04T20:54:05.847Z,42.75
2022-12-04T20:56:34.768Z,44.95
2022-12-04T20:59:05.605Z,42.28
2022-12-04T21:01:33.412Z,42.92
2022-12-04T21:04:00.749Z,43.83
2022-12-04T21:06:34.461Z,46.55
2022-12-04T21:09:06.008Z,49.03
2022-12-04T21:11:38.337Z,46.20
2022-12-04T21:14:27.177Z,45.55
2022-12-04T21:16:53.716Z,41.85
2022-12-04T21:19:21.900Z,38.47
2022-12-04T21:21:49.431Z,37.70
2022-12-04T21:24:18.061Z,42.45
2022-12-04T21:26:45.446Z,39.08
2022-12-04T21:29:12.010Z,38.08
2022-12-04T21:31:39.368Z,39.40
2022-12-04T21:34:08.138Z,34.30
2022-12-04T21:36:34.981Z,34.97
2022-12-04T21:39:01.841Z,34.63
2022-12-04T21:41:46.776Z,42.05
2022-12-04T21:44:18.317Z,37.00
2022-12-04T21:46:46.224Z,39.08
2022-12-04T21:49:13.803Z,38.95
2022-12-04T21:51:56.904Z,37.42
2022-12-04T21:54:25.091Z,37.95
2022-12-04T21:56:51.646Z,37.25
2022-12-04T21:59:18.384Z,35.03
2022-12-04T22:01:44.988Z,38.10
2022-12-04T22:04:11.817Z,36.75
2022-12-04T22:06:38.463Z,33.13
2022-12-04T22:09:10.578Z,31.92
2022-12-04T22:11:38.221Z,35.72
2022-12-04T22:14:04.895Z,33.70
2022-12-04T22:16:34.613Z,28.77
2022-12-04T22:19:04.334Z,32.53
2022-12-04T22:21:30.917Z,32.10
2022-12-04T22:23:59.511Z,32.13
2022-12-04T22:26:27.231Z,32.03
2022-12-04T22:28:53.807Z,29.30
2022-12-04T22:31:22.577Z,31.58
2022-12-04T22:33:51.164Z,29.00
2022-12-04T22:36:20.561Z,33.63
2022-12-04T22:39:08.088Z,32.08
2022-12-04T22:41:34.060Z,29.92
2022-12-04T22:44:00.749Z,27.60
2022-12-04T22:46:27.441Z,27.63
2022-12-04T22:48:54.137Z,27.52
2022-12-04T22:51:22.345Z,34.08
2022-12-04T22:53:52.360Z,29.55
2022-12-04T22:56:28.184Z,30.02
2022-12-04T22:58:55.440Z,27.80
2022-12-04T23:01:25.072Z,25.80
2022-12-04T23:03:52.277Z,26.98
2022-12-04T23:06:20.856Z,28.63
2022-12-04T23:08:47.445Z,26.85
2022-12-04T23:11:19.783Z,29.95
2022-12-04T23:13:51.170Z,28.80
2022-12-04T23:16:20.264Z,30.42
2022-12-04T23:18:47.498Z,26.50
2022-12-04T23:21:14.761Z,26.35
2022-12-04T23:23:42.969Z,25.02
2022-12-04T23:26:12.558Z,22.80
2022-12-04T23:28:39.522Z,27.45
2022-12-04T23:31:06.337Z,27.15
2022-12-04T23:33:33.692Z,29.38
2022-12-04T23:36:02.501Z,25.80
2022-12-04T23:38:29.983Z,26.88
2022-12-04T23:41:07.087Z,27.85
2022-12-04T23:43:34.806Z,33.60
2022-12-04T23:46:04.593Z,26.85
2022-12-04T23:48:35.913Z,26.95
2022-12-04T23:51:02.420Z,24.30
2022-12-04T23:53:29.066Z,26.00
2022-12-04T23:55:59.387Z,24.45
2022-12-04T23:58:26.364Z,25.02
